createdAt,value
2023-11-19T00:01:25.528Z,100580.34
2023-11-19T00:03:54.626Z,100582.97
2023-11-19T00:06:24.158Z,100565.56
2023-11-19T00:08:53.409Z,100561.34
2023-11-19T00:11:21.279Z,100568.50
2023-11-19T00:13:49.218Z,100564.66
2023-11-19T00:16:17.715Z,100589.09
2023-11-19T00:18:45.750Z,100594.31
2023-11-19T00:21:13.737Z,100597.63
2023-11-19T00:23:41.681Z,100602.81
2023-11-19T00:26:11.379Z,100606.88
2023-11-19T00:28:40.416Z,100599.56
2023-11-19T00:31:08.598Z,100591.97
2023-11-19T00:36:17.041Z,100586.09
2023-11-19T00:38:44.931Z,100589.47
2023-11-19T00:41:17.001Z,100582.16
2023-11-19T00:43:44.933Z,100585.59
2023-11-19T00:46:13.050Z,100583.59
2023-11-19T00:48:41.191Z,100578.88
2023-11-19T00:51:09.623Z,100585.78
2023-11-19T00:53:37.563Z,100580.19
2023-11-19T00:56:06.066Z,100575.47
2023-11-19T00:58:35.319Z,100573.31
2023-11-19T01:01:03.173Z,100580.69
2023-11-19T01:03:31.237Z,100573.06
2023-11-19T01:06:00.802Z,100572.81
2023-11-19T01:08:29.262Z,100559.13
2023-11-19T01:10:57.172Z,100561.44
2023-11-19T01:13:25.730Z,100554.00
2023-11-19T01:15:57.368Z,100555.44
2023-11-19T01:18:25.554Z,100559.03
2023-11-19T01:20:53.558Z,100552.31
2023-11-19T01:23:21.471Z,100545.41
2023-11-19T01:25:49.630Z,100551.50
2023-11-19T01:28:17.625Z,100548.31
2023-11-19T01:30:45.530Z,100549.94
2023-11-19T01:33:14.937Z,100552.25
2023-11-19T01:35:42.937Z,100556.44
2023-11-19T01:38:11.002Z,100556.00
2023-11-19T01:40:39.414Z,100559.34
2023-11-19T01:43:07.389Z,100559.22
2023-11-19T01:45:35.928Z,100554.03
2023-11-19T01:48:06.066Z,100559.09
2023-11-19T01:50:36.786Z,100555.09
2023-11-19T01:53:04.849Z,100551.22
2023-11-19T01:55:32.913Z,100552.78
2023-11-19T01:58:03.707Z,100560.44
2023-11-19T02:00:34.475Z,100551.06
2023-11-19T02:03:02.946Z,100557.28
2023-11-19T02:05:33.478Z,100558.88
2023-11-19T02:08:03.413Z,100553.09
2023-11-19T02:10:32.984Z,100548.34
2023-11-19T02:15:34.541Z,100539.91
2023-11-19T02:18:20.739Z,100530.97
2023-11-19T02:20:50.929Z,100517.44
2023-11-19T02:23:22.194Z,100508.78
2023-11-19T02:26:03.996Z,100494.81
2023-11-19T02:28:34.082Z,100483.00
2023-11-19T02:31:02.243Z,100491.09
2023-11-19T02:33:30.518Z,100500.03
2023-11-19T02:35:58.536Z,100495.25
2023-11-19T02:38:26.903Z,100498.72
2023-11-19T02:40:55.075Z,100489.63
2023-11-19T02:43:23.035Z,100489.22
2023-11-19T02:45:52.683Z,100488.91
2023-11-19T02:48:20.515Z,100500.88
2023-11-19T02:50:49.305Z,100495.25
2023-11-19T02:53:17.587Z,100494.09
2023-11-19T02:55:49.764Z,100491.22
2023-11-19T02:58:24.721Z,100501.88
2023-11-19T03:00:58.655Z,100490.91
2023-11-19T03:03:32.057Z,100504.31
2023-11-19T03:06:00.254Z,100499.72
2023-11-19T03:08:28.346Z,100479.41
2023-11-19T03:10:56.361Z,100478.53
2023-11-19T03:13:24.333Z,100482.84
2023-11-19T03:15:52.743Z,100476.34
2023-11-19T03:18:22.109Z,100472.47
2023-11-19T03:20:50.847Z,100468.00
2023-11-19T03:23:18.710Z,100476.06
2023-11-19T03:25:46.667Z,100461.38
2023-11-19T03:28:14.788Z,100465.66
2023-11-19T03:30:43.046Z,100468.25
2023-11-19T03:33:11.032Z,100461.78
2023-11-19T03:35:42.208Z,100456.88
2023-11-19T03:38:10.059Z,100471.44
2023-11-19T03:40:39.230Z,100483.28
2023-11-19T03:43:07.360Z,100478.47
2023-11-19T03:45:35.343Z,100475.06
2023-11-19T03:48:04.225Z,100479.22
2023-11-19T03:50:32.162Z,100483.81
2023-11-19T03:53:01.891Z,100489.88
2023-11-19T03:55:30.068Z,100484.53
2023-11-19T03:57:58.677Z,100490.03
2023-11-19T04:00:26.584Z,100495.34
2023-11-19T04:02:54.641Z,100501.72
2023-11-19T04:05:22.529Z,100504.31
2023-11-19T04:07:50.456Z,100505.13
2023-11-19T04:10:19.877Z,100506.72
2023-11-19T04:12:48.256Z,100484.94
2023-11-19T04:15:16.721Z,100499.50
2023-11-19T04:17:44.740Z,100489.44
2023-11-19T04:20:14.635Z,100485.69
2023-11-19T04:22:43.008Z,100483.06
2023-11-19T04:25:12.202Z,100496.63
2023-11-19T04:27:41.528Z,100493.03
2023-11-19T04:30:12.377Z,100508.47
2023-11-19T04:32:40.898Z,100507.72
2023-11-19T04:35:10.705Z,100507.59
2023-11-19T04:37:39.020Z,100511.34
2023-11-19T04:40:08.416Z,100505.00
2023-11-19T04:42:36.440Z,100496.09
2023-11-19T04:45:07.971Z,100509.47
2023-11-19T04:47:36.474Z,100514.22
2023-11-19T04:50:04.660Z,100506.88
2023-11-19T04:52:32.683Z,100501.56
2023-11-19T04:55:00.644Z,100494.19
2023-11-19T04:57:28.763Z,100493.50
2023-11-19T04:59:56.562Z,100498.09
2023-11-19T05:02:26.051Z,100512.53
2023-11-19T05:04:54.211Z,100508.19
2023-11-19T05:07:22.509Z,100498.38
2023-11-19T05:09:50.378Z,100506.47
2023-11-19T05:12:18.428Z,100507.47
2023-11-19T05:14:51.831Z,100503.00
2023-11-19T05:17:20.480Z,100503.84
2023-11-19T05:19:50.074Z,100527.50
2023-11-19T05:22:18.213Z,100516.81
2023-11-19T05:24:46.105Z,100527.78
2023-11-19T05:27:14.753Z,100516.81
2023-11-19T05:29:44.015Z,100517.84
2023-11-19T05:32:12.574Z,100532.56
2023-11-19T05:34:52.103Z,100529.81
2023-11-19T05:37:22.244Z,100536.31
2023-11-19T05:39:50.284Z,100533.56
2023-11-19T05:42:18.264Z,100533.72
2023-11-19T05:44:46.173Z,100530.97
2023-11-19T05:47:14.206Z,100538.31
2023-11-19T05:49:42.268Z,100542.78
2023-11-19T05:52:11.725Z,100535.00
2023-11-19T05:54:41.344Z,100534.59
2023-11-19T05:57:10.595Z,100534.84
2023-11-19T05:59:39.065Z,100533.84
2023-11-19T06:02:06.937Z,100531.25
2023-11-19T06:04:35.027Z,100533.00
2023-11-19T06:07:03.134Z,100542.94
2023-11-19T06:09:31.237Z,100550.16
2023-11-19T06:12:02.924Z,100551.88
2023-11-19T06:14:30.904Z,100550.44
2023-11-19T06:16:58.848Z,100544.94
2023-11-19T06:19:30.637Z,100567.59
2023-11-19T06:21:59.019Z,100556.03
2023-11-19T06:24:26.874Z,100562.25
2023-11-19T06:26:54.874Z,100558.63
2023-11-19T06:29:24.106Z,100560.38
2023-11-19T06:31:52.382Z,100546.13
2023-11-19T06:34:20.275Z,100552.47
2023-11-19T06:36:49.567Z,100551.75
2023-11-19T06:39:18.597Z,100557.22
2023-11-19T06:41:49.942Z,100543.81
2023-11-19T06:44:17.976Z,100549.41
2023-11-19T06:46:47.307Z,100552.03
2023-11-19T06:49:15.510Z,100555.06
2023-11-19T06:51:45.049Z,100561.56
2023-11-19T06:54:13.059Z,100565.28
2023-11-19T06:56:41.023Z,100560.81
2023-11-19T06:59:08.996Z,100557.34
2023-11-19T07:01:38.142Z,100554.63
2023-11-19T07:04:10.564Z,100547.28
2023-11-19T07:06:38.558Z,100549.44
2023-11-19T07:09:11.607Z,100545.84
2023-11-19T07:11:40.633Z,100543.09
2023-11-19T07:14:09.102Z,100546.13
2023-11-19T07:16:38.534Z,100547.00
2023-11-19T07:19:08.257Z,100557.81
2023-11-19T07:21:40.446Z,100553.47
2023-11-19T07:24:09.278Z,100567.28
2023-11-19T07:26:37.236Z,100559.94
2023-11-19T07:29:08.695Z,100570.03
2023-11-19T07:31:36.832Z,100562.81
2023-11-19T07:34:04.915Z,100563.81
2023-11-19T07:36:34.347Z,100566.41
2023-11-19T07:39:02.232Z,100557.47
2023-11-19T07:41:30.208Z,100568.28
2023-11-19T07:43:58.133Z,100575.63
2023-11-19T07:46:26.532Z,100579.38
2023-11-19T07:48:55.028Z,100590.19
2023-11-19T07:51:23.237Z,100587.75
2023-11-19T07:53:52.597Z,100600.28
2023-11-19T07:56:20.785Z,100603.88
2023-11-19T07:58:49.376Z,100612.81
2023-11-19T08:01:18.314Z,100619.16
2023-11-19T08:06:17.477Z,100630.13
2023-11-19T08:08:45.889Z,100631.00
2023-11-19T08:11:16.144Z,100635.31
2023-11-19T08:13:44.549Z,100619.03
2023-11-19T08:16:13.065Z,100631.84
2023-11-19T08:18:46.141Z,100655.34
2023-11-19T08:21:14.654Z,100645.69
2023-11-19T08:23:44.568Z,100667.00
2023-11-19T08:26:12.729Z,100666.00
2023-11-19T08:28:42.391Z,100665.13
2023-11-19T08:31:10.569Z,100659.53
2023-11-19T08:33:39.839Z,100659.25
2023-11-19T08:36:08.882Z,100661.69
2023-11-19T08:38:37.323Z,100662.56
2023-11-19T08:41:06.591Z,100645.13
2023-11-19T08:43:34.601Z,100652.06
2023-11-19T08:46:04.293Z,100641.81
2023-11-19T08:48:32.324Z,100652.63
2023-11-19T08:51:05.203Z,100655.09
2023-11-19T08:53:33.281Z,100655.97
2023-11-19T08:56:01.642Z,100666.59
2023-11-19T08:58:29.911Z,100649.16
2023-11-19T09:00:58.481Z,100661.59
2023-11-19T09:03:28.638Z,100664.00
2023-11-19T09:05:56.786Z,100657.84
2023-11-19T09:08:25.117Z,100662.00
2023-11-19T09:10:53.247Z,100661.88
2023-11-19T09:13:21.238Z,100664.47
2023-11-19T09:15:49.709Z,100646.16
2023-11-19T09:18:17.850Z,100657.84
2023-11-19T09:20:47.928Z,100661.88
2023-11-19T09:23:16.547Z,100662.75
2023-11-19T09:25:45.717Z,100662.44
2023-11-19T09:28:14.314Z,100657.69
2023-11-19T09:30:42.429Z,100657.25
2023-11-19T09:33:10.951Z,100658.84
2023-11-19T09:35:39.004Z,100657.41
2023-11-19T09:38:08.860Z,100655.94
2023-11-19T09:40:36.848Z,100652.97
2023-11-19T09:43:05.070Z,100668.09
2023-11-19T09:45:40.993Z,100658.41
2023-11-19T09:48:09.611Z,100668.22
2023-11-19T09:50:38.027Z,100667.06
2023-11-19T09:53:06.605Z,100650.47
2023-11-19T09:55:35.894Z,100661.00
2023-11-19T09:58:04.461Z,100660.84
2023-11-19T10:00:33.032Z,100657.81
2023-11-19T10:03:02.545Z,100660.81
2023-11-19T10:05:30.679Z,100658.63
2023-11-19T10:07:59.404Z,100661.09
2023-11-19T10:10:27.600Z,100655.16
2023-11-19T10:12:58.322Z,100664.81
2023-11-19T10:15:28.620Z,100645.75
2023-11-19T10:17:59.144Z,100648.03
2023-11-19T10:20:27.758Z,100634.34
2023-11-19T10:22:57.026Z,100635.19
2023-11-19T10:25:26.802Z,100632.31
2023-11-19T10:27:57.010Z,100641.25
2023-11-19T10:30:27.331Z,100635.78
2023-11-19T10:33:09.134Z,100644.59
2023-11-19T10:35:38.364Z,100644.00
2023-11-19T10:38:16.626Z,100647.00
2023-11-19T10:40:44.769Z,100638.91
2023-11-19T10:43:14.879Z,100641.38
2023-11-19T10:45:43.138Z,100642.38
2023-11-19T10:48:11.593Z,100634.88
2023-11-19T10:50:40.593Z,100634.59
2023-11-19T10:53:10.752Z,100642.81
2023-11-19T10:55:40.892Z,100632.00
2023-11-19T10:58:10.559Z,100640.91
2023-11-19T11:00:47.222Z,100638.03
2023-11-19T11:03:19.734Z,100629.09
2023-11-19T11:05:49.616Z,100634.41
2023-11-19T11:08:18.110Z,100630.66
2023-11-19T11:13:19.263Z,100626.91
2023-11-19T11:15:49.147Z,100629.34
2023-11-19T11:18:18.308Z,100611.16
2023-11-19T11:20:47.625Z,100626.28
2023-11-19T11:23:45.139Z,100633.34
2023-11-19T11:26:37.562Z,100628.72
2023-11-19T11:29:11.651Z,100630.63
2023-11-19T11:31:50.828Z,100621.91
2023-11-19T11:34:53.065Z,100614.41
2023-11-19T11:37:28.230Z,100615.97
2023-11-19T11:40:00.508Z,100614.81
2023-11-19T11:42:36.505Z,100601.34
2023-11-19T11:45:09.159Z,100603.78
2023-11-19T11:48:21.046Z,100604.50
2023-11-19T11:51:00.390Z,100600.59
2023-11-19T11:53:28.669Z,100602.31
2023-11-19T11:56:02.192Z,100593.75
2023-11-19T11:58:33.584Z,100605.47
2023-11-19T12:01:04.393Z,100599.09
2023-11-19T12:03:34.178Z,100603.59
2023-11-19T12:06:04.367Z,100605.31
2023-11-19T12:08:32.575Z,100600.69
2023-11-19T12:11:01.067Z,100600.53
2023-11-19T12:13:49.596Z,100589.41
2023-11-19T12:16:17.516Z,100587.66
2023-11-19T12:18:45.964Z,100583.72
2023-11-19T12:21:29.965Z,100575.19
2023-11-19T12:24:05.038Z,100573.31
2023-11-19T12:26:35.469Z,100579.38
2023-11-19T12:29:08.829Z,100575.44
2023-11-19T12:31:40.905Z,100578.88
2023-11-19T12:34:14.344Z,100569.47
2023-11-19T12:36:44.647Z,100563.81
2023-11-19T12:39:15.974Z,100564.84
2023-11-19T12:41:56.393Z,100574.63
2023-11-19T12:44:25.142Z,100574.97
2023-11-19T12:47:05.612Z,100564.50
2023-11-19T12:49:33.635Z,100571.50
2023-11-19T12:52:04.187Z,100554.88
2023-11-19T12:54:36.480Z,100567.91
2023-11-19T12:57:06.037Z,100564.06
2023-11-19T12:59:34.080Z,100572.44
2023-11-19T13:02:04.285Z,100571.88
2023-11-19T13:04:32.822Z,100580.13
2023-11-19T13:07:07.567Z,100576.69
2023-11-19T13:09:35.746Z,100567.88
2023-11-19T13:12:15.807Z,100572.38
2023-11-19T13:14:45.598Z,100574.38
2023-11-19T13:17:17.191Z,100585.22
2023-11-19T13:19:48.203Z,100580.03
2023-11-19T13:22:17.737Z,100577.28
2023-11-19T13:24:45.654Z,100574.00
2023-11-19T13:27:13.624Z,100572.28
2023-11-19T13:29:41.660Z,100581.38
2023-11-19T13:32:09.842Z,100588.03
2023-11-19T13:34:38.229Z,100583.56
2023-11-19T13:37:06.267Z,100582.53
2023-11-19T13:39:37.537Z,100585.13
2023-11-19T13:44:37.221Z,100582.53
2023-11-19T13:47:05.491Z,100571.72
2023-11-19T13:49:51.418Z,100578.78
2023-11-19T13:52:19.343Z,100563.31
2023-11-19T13:54:57.424Z,100564.03
2023-11-19T13:57:26.559Z,100563.47
2023-11-19T13:59:54.791Z,100559.72
2023-11-19T14:02:22.888Z,100565.19
2023-11-19T14:04:50.794Z,100561.59
2023-11-19T14:07:19.268Z,100553.53
2023-11-19T14:09:48.611Z,100550.78
2023-11-19T14:12:16.615Z,100548.16
2023-11-19T14:14:44.955Z,100550.19
2023-11-19T14:17:16.492Z,100545.56
2023-11-19T14:19:45.275Z,100554.81
2023-11-19T14:22:16.065Z,100559.72
2023-11-19T14:24:44.268Z,100553.41
2023-11-19T14:27:13.865Z,100559.44
2023-11-19T14:29:41.944Z,100553.56
2023-11-19T14:32:10.521Z,100558.34
2023-11-19T14:34:39.357Z,100556.59
2023-11-19T14:37:07.865Z,100558.47
2023-11-19T14:39:35.970Z,100546.97
2023-11-19T14:42:06.396Z,100552.75
2023-11-19T14:44:35.875Z,100548.28
2023-11-19T14:47:04.425Z,100546.31
2023-11-19T14:49:32.679Z,100549.34
2023-11-19T14:52:17.630Z,100570.75
2023-11-19T14:54:47.083Z,100570.19
2023-11-19T14:57:15.654Z,100572.53
2023-11-19T14:59:45.176Z,100568.19
2023-11-19T15:02:13.402Z,100559.72
2023-11-19T15:04:42.681Z,100558.13
2023-11-19T15:07:11.328Z,100552.97
2023-11-19T15:09:39.397Z,100565.81
2023-11-19T15:12:08.243Z,100560.47
2023-11-19T15:14:36.570Z,100550.53
2023-11-19T15:17:07.918Z,100548.94
2023-11-19T15:19:36.087Z,100557.47
2023-11-19T15:22:06.750Z,100550.69
2023-11-19T15:24:34.947Z,100553.63
2023-11-19T15:29:35.649Z,100553.19
2023-11-19T15:32:05.542Z,100545.09
2023-11-19T15:34:33.798Z,100545.56
2023-11-19T15:37:02.124Z,100550.19
2023-11-19T15:39:30.668Z,100541.38
2023-11-19T15:42:00.494Z,100546.00
2023-11-19T15:44:29.767Z,100549.91
2023-11-19T15:46:57.732Z,100546.31
2023-11-19T15:49:30.167Z,100541.56
2023-11-19T15:51:58.386Z,100536.50
2023-11-19T15:54:26.511Z,100538.22
2023-11-19T15:56:54.597Z,100537.50
2023-11-19T15:59:23.343Z,100541.25
2023-11-19T16:01:51.564Z,100539.72
2023-11-19T16:04:20.427Z,100545.00
2023-11-19T16:06:50.118Z,100540.41
2023-11-19T16:09:20.383Z,100540.72
2023-11-19T16:11:54.568Z,100534.47
2023-11-19T16:14:25.286Z,100545.44
2023-11-19T16:16:54.893Z,100553.41
2023-11-19T16:19:22.963Z,100559.03
2023-11-19T16:21:52.447Z,100539.84
2023-11-19T16:24:20.714Z,100540.81
2023-11-19T16:26:50.204Z,100539.09
2023-11-19T16:29:18.355Z,100539.09
2023-11-19T16:31:46.889Z,100546.44
2023-11-19T16:34:15.630Z,100536.50
2023-11-19T16:36:44.929Z,100534.06
2023-11-19T16:39:16.573Z,100534.75
2023-11-19T16:41:45.247Z,100533.34
2023-11-19T16:44:13.279Z,100524.13
2023-11-19T16:46:41.403Z,100532.34
2023-11-19T16:49:09.390Z,100533.22
2023-11-19T16:51:37.381Z,100538.84
2023-11-19T16:54:05.975Z,100546.03
2023-11-19T16:57:47.571Z,100537.09
2023-11-19T17:17:29.386Z,100547.66
2023-11-19T17:20:44.818Z,100537.84
2023-11-19T17:31:50.659Z,100544.06
2023-11-19T17:45:05.789Z,100541.75
2023-11-19T17:47:40.461Z,100543.34
2023-11-19T17:56:16.007Z,100541.31
2023-11-19T18:05:37.658Z,100532.97
2023-11-19T18:08:09.736Z,100541.19
2023-11-19T18:10:40.383Z,100525.44
2023-11-19T18:13:09.523Z,100525.28
2023-11-19T18:15:38.142Z,100518.66
2023-11-19T18:18:06.594Z,100531.50
2023-11-19T18:20:34.886Z,100524.00
2023-11-19T18:23:03.078Z,100521.25
2023-11-19T18:25:32.991Z,100521.13
2023-11-19T18:28:02.338Z,100528.28
2023-11-19T18:30:30.701Z,100542.88
2023-11-19T18:32:59.214Z,100538.38
2023-11-19T18:35:27.998Z,100547.34
2023-11-19T18:37:56.707Z,100556.41
2023-11-19T18:40:25.622Z,100552.97
2023-11-19T18:42:55.650Z,100546.47
2023-11-19T18:45:24.300Z,100548.81
2023-11-19T18:47:53.001Z,100544.03
2023-11-19T18:50:22.190Z,100540.44
2023-11-19T18:52:50.815Z,100536.97
2023-11-19T18:55:19.241Z,100538.84
2023-11-19T18:57:48.132Z,100533.50
2023-11-19T19:00:20.317Z,100531.78
2023-11-19T19:05:22.956Z,100536.72
2023-11-19T19:07:53.687Z,100536.72
2023-11-19T19:10:22.124Z,100530.34
2023-11-19T19:12:51.133Z,100531.38
2023-11-19T19:15:20.755Z,100532.97
2023-11-19T19:17:50.794Z,100527.91
2023-11-19T19:20:19.577Z,100530.66
2023-11-19T19:22:47.751Z,100529.09
2023-11-19T19:25:17.127Z,100537.13
2023-11-19T19:27:46.313Z,100533.84
2023-11-19T19:30:15.394Z,100518.25
2023-11-19T19:32:45.960Z,100528.22
2023-11-19T19:35:14.632Z,100524.91
2023-11-19T19:37:42.982Z,100516.09
2023-11-19T19:42:45.784Z,100535.44
2023-11-19T19:45:16.338Z,100525.34
2023-11-19T19:47:46.019Z,100529.25
2023-11-19T19:50:14.332Z,100520.28
2023-11-19T19:52:42.794Z,100521.28
2023-11-19T19:55:13.152Z,100514.97
2023-11-19T19:57:46.539Z,100516.13
2023-11-19T20:00:17.140Z,100519.00
2023-11-19T20:02:47.697Z,100515.41
2023-11-19T20:05:19.040Z,100517.56
2023-11-19T20:07:49.078Z,100516.00
2023-11-19T20:10:24.978Z,100514.41
2023-11-19T20:12:53.218Z,100509.06
2023-11-19T20:15:25.360Z,100511.09
2023-11-19T20:17:55.012Z,100510.53
2023-11-19T20:20:23.278Z,100513.13
2023-11-19T20:22:55.101Z,100514.13
2023-11-19T20:25:26.142Z,100514.56
2023-11-19T20:27:54.540Z,100518.16
2023-11-19T20:30:22.980Z,100520.03
2023-11-19T20:32:51.353Z,100518.59
2023-11-19T20:35:21.585Z,100517.75
2023-11-19T20:37:53.156Z,100524.22
2023-11-19T20:40:22.193Z,100522.63
2023-11-19T20:42:51.684Z,100528.09
2023-11-19T20:45:22.112Z,100511.81
2023-11-19T20:47:51.761Z,100522.75
2023-11-19T20:50:31.514Z,100526.38
2023-11-19T20:53:04.294Z,100530.28
2023-11-19T20:55:34.244Z,100527.69
2023-11-19T20:58:05.798Z,100540.91
2023-11-19T21:00:34.404Z,100536.44
2023-11-19T21:03:09.223Z,100540.66
2023-11-19T21:05:41.242Z,100553.59
2023-11-19T21:08:10.145Z,100541.06
2023-11-19T21:10:38.329Z,100541.22
2023-11-19T21:13:06.621Z,100538.19
2023-11-19T21:15:39.433Z,100547.25
2023-11-19T21:18:12.248Z,100541.78
2023-11-19T21:20:45.447Z,100545.13
2023-11-19T21:23:13.998Z,100532.72
2023-11-19T21:25:42.125Z,100529.84
2023-11-19T21:28:10.690Z,100533.44
2023-11-19T21:30:40.048Z,100534.44
2023-11-19T21:33:08.770Z,100535.44
2023-11-19T21:35:38.931Z,100528.09
2023-11-19T21:38:08.523Z,100539.63
2023-11-19T21:40:36.671Z,100542.25
2023-11-19T21:43:06.860Z,100535.16
2023-11-19T21:45:46.572Z,100538.78
2023-11-19T21:48:18.322Z,100538.78
2023-11-19T21:50:51.861Z,100534.16
2023-11-19T21:53:21.734Z,100539.50
2023-11-19T21:55:51.062Z,100541.38
2023-11-19T21:58:19.190Z,100537.91
2023-11-19T22:00:47.541Z,100545.13
2023-11-19T22:03:16.010Z,100545.97
2023-11-19T22:05:44.246Z,100545.66
2023-11-19T22:10:48.446Z,100548.59
2023-11-19T22:13:17.048Z,100554.75
2023-11-19T22:15:45.324Z,100554.94
2023-11-19T22:18:13.505Z,100550.16
2023-11-19T22:20:41.768Z,100553.75
2023-11-19T22:23:10.476Z,100557.50
2023-11-19T22:25:38.637Z,100552.00
2023-11-19T22:28:08.032Z,100555.47
2023-11-19T22:30:36.519Z,100562.84
2023-11-19T22:33:08.406Z,100562.97
2023-11-19T22:35:37.902Z,100564.13
2023-11-19T22:38:07.216Z,100565.72
2023-11-19T22:40:36.887Z,100566.28
2023-11-19T22:43:05.049Z,100558.34
2023-11-19T22:45:34.734Z,100574.38
2023-11-19T22:48:03.359Z,100571.78
2023-11-19T22:50:32.957Z,100570.91
2023-11-19T22:53:01.371Z,100567.16
2023-11-19T22:55:29.419Z,100571.78
2023-11-19T22:58:01.137Z,100571.63
2023-11-19T23:00:30.790Z,100563.56
2023-11-19T23:03:04.926Z,100558.09
2023-11-19T23:05:41.463Z,100563.56
2023-11-19T23:08:12.041Z,100570.78
2023-11-19T23:10:40.206Z,100560.97
2023-11-19T23:13:08.573Z,100570.03
2023-11-19T23:15:36.587Z,100566.44
2023-11-19T23:18:06.446Z,100567.03
2023-11-19T23:20:34.694Z,100563.56
2023-11-19T23:23:03.242Z,100564.56
2023-11-19T23:25:31.623Z,100564.28
2023-11-19T23:27:59.641Z,100566.28
2023-11-19T23:30:27.859Z,100564.28
2023-11-19T23:32:55.951Z,100567.16
2023-11-19T23:35:25.293Z,100560.69
2023-11-19T23:37:53.189Z,100559.81
2023-11-19T23:40:21.132Z,100558.81
2023-11-19T23:42:49.494Z,100557.94
2023-11-19T23:45:17.941Z,100557.81
2023-11-19T23:47:45.912Z,100559.50
2023-11-19T23:50:14.032Z,100558.81
2023-11-19T23:52:43.301Z,100546.84
2023-11-19T23:55:12.509Z,100568.03
2023-11-19T23:57:41.475Z,100564.13
